sensor_id;sensor_type;location;lat;lon;timestamp;pressure;altitude;pressure_sealevel;temperature;humidity
20013;BME280;10167;42.852;23.042;2022-08-19T00:01:50;94634.72;;;20.55;100.00
20013;BME280;10167;42.852;23.042;2022-08-19T00:07:22;94642.19;;;20.80;100.00
20013;BME280;10167;42.852;23.042;2022-08-19T00:09:50;94640.59;;;20.79;100.00
20013;BME280;10167;42.852;23.042;2022-08-19T00:12:19;94640.66;;;20.65;100.00
20013;BME280;10167;42.852;23.042;2022-08-19T00:14:46;94636.75;;;20.49;100.00
20013;BME280;10167;42.852;23.042;2022-08-19T00:17:13;94636.56;;;20.46;100.00
20013;BME280;10167;42.852;23.042;2022-08-19T00:19:41;94636.69;;;20.27;100.00
20013;BME280;10167;42.852;23.042;2022-08-19T00:22:08;94636.06;;;20.08;100.00
20013;BME280;10167;42.852;23.042;2022-08-19T00:29:40;94633.19;;;19.77;100.00
20013;BME280;10167;42.852;23.042;2022-08-19T00:32:08;94636.78;;;19.72;100.00
20013;BME280;10167;42.852;23.042;2022-08-19T00:34:37;94632.22;;;19.73;100.00
20013;BME280;10167;42.852;23.042;2022-08-19T00:37:04;94624.97;;;19.73;100.00
20013;BME280;10167;42.852;23.042;2022-08-19T00:39:34;94630.78;;;19.89;100.00
20013;BME280;10167;42.852;23.042;2022-08-19T00:42:02;94641.44;;;20.08;100.00
20013;BME280;10167;42.852;23.042;2022-08-19T00:44:29;94638.22;;;20.19;100.00
20013;BME280;10167;42.852;23.042;2022-08-19T00:49:54;94622.69;;;20.16;100.00
20013;BME280;10167;42.852;23.042;2022-08-19T00:52:25;94635.31;;;20.16;100.00
20013;BME280;10167;42.852;23.042;2022-08-19T00:54:56;94620.56;;;20.27;100.00
20013;BME280;10167;42.852;23.042;2022-08-19T00:57:28;94621.16;;;20.24;100.00
20013;BME280;10167;42.852;23.042;2022-08-19T00:59:58;94627.00;;;20.04;100.00
20013;BME280;10167;42.852;23.042;2022-08-19T01:02:32;94624.22;;;19.95;100.00
20013;BME280;10167;42.852;23.042;2022-08-19T01:05:02;94622.66;;;19.80;100.00
20013;BME280;10167;42.852;23.042;2022-08-19T01:12:33;94634.09;;;19.86;100.00
20013;BME280;10167;42.852;23.042;2022-08-19T01:15:02;94621.84;;;19.93;100.00
20013;BME280;10167;42.852;23.042;2022-08-19T01:17:30;94626.81;;;19.86;100.00
20013;BME280;10167;42.852;23.042;2022-08-19T01:19:58;94629.81;;;19.85;100.00
20013;BME280;10167;42.852;23.042;2022-08-19T01:22:30;94624.25;;;19.81;100.00
20013;BME280;10167;42.852;23.042;2022-08-19T01:25:00;94627.13;;;19.85;100.00
20013;BME280;10167;42.852;23.042;2022-08-19T01:27:37;94625.94;;;19.77;100.00
20013;BME280;10167;42.852;23.042;2022-08-19T01:35:14;94633.69;;;19.65;100.00
20013;BME280;10167;42.852;23.042;2022-08-19T01:37:46;94625.47;;;19.62;100.00
20013;BME280;10167;42.852;23.042;2022-08-19T01:40:15;94620.59;;;19.50;100.00
20013;BME280;10167;42.852;23.042;2022-08-19T01:42:43;94637.97;;;19.39;100.00
20013;BME280;10167;42.852;23.042;2022-08-19T01:45:10;94639.84;;;19.38;100.00
20013;BME280;10167;42.852;23.042;2022-08-19T01:47:38;94640.22;;;19.32;100.00
20013;BME280;10167;42.852;23.042;2022-08-19T01:50:08;94635.84;;;19.22;100.00
20013;BME280;10167;42.852;23.042;2022-08-19T01:57:36;94632.66;;;19.20;100.00
20013;BME280;10167;42.852;23.042;2022-08-19T02:00:07;94635.75;;;19.13;100.00
20013;BME280;10167;42.852;23.042;2022-08-19T02:02:37;94634.84;;;19.32;100.00
20013;BME280;10167;42.852;23.042;2022-08-19T02:05:10;94627.84;;;19.49;100.00
20013;BME280;10167;42.852;23.042;2022-08-19T02:07:40;94632.09;;;19.64;100.00
20013;BME280;10167;42.852;23.042;2022-08-19T02:10:13;94629.53;;;19.73;100.00
20013;BME280;10167;42.852;23.042;2022-08-19T02:12:43;94637.38;;;19.83;100.00
20013;BME280;10167;42.852;23.042;2022-08-19T02:20:15;94639.66;;;19.76;100.00
20013;BME280;10167;42.852;23.042;2022-08-19T02:22:43;94637.69;;;19.68;100.00
20013;BME280;10167;42.852;23.042;2022-08-19T02:25:11;94640.88;;;19.70;100.00
20013;BME280;10167;42.852;23.042;2022-08-19T02:27:40;94631.00;;;19.65;100.00
20013;BME280;10167;42.852;23.042;2022-08-19T02:30:12;94638.31;;;19.51;100.00
20013;BME280;10167;42.852;23.042;2022-08-19T02:32:40;94632.97;;;19.46;100.00
20013;BME280;10167;42.852;23.042;2022-08-19T02:35:21;94628.31;;;19.24;100.00
20013;BME280;10167;42.852;23.042;2022-08-19T02:43:11;94617.88;;;19.36;100.00
20013;BME280;10167;42.852;23.042;2022-08-19T02:45:39;94617.47;;;19.15;100.00
20013;BME280;10167;42.852;23.042;2022-08-19T02:48:08;94624.28;;;19.08;100.00
20013;BME280;10167;42.852;23.042;2022-08-19T02:50:48;94627.00;;;19.21;100.00
20013;BME280;10167;42.852;23.042;2022-08-19T02:53:22;94627.94;;;18.98;100.00
20013;BME280;10167;42.852;23.042;2022-08-19T02:55:50;94633.91;;;18.81;100.00
20013;BME280;10167;42.852;23.042;2022-08-19T02:58:19;94628.25;;;18.64;100.00
20013;BME280;10167;42.852;23.042;2022-08-19T03:05:51;94646.31;;;18.40;100.00
20013;BME280;10167;42.852;23.042;2022-08-19T03:08:23;94649.38;;;18.33;100.00
20013;BME280;10167;42.852;23.042;2022-08-19T03:10:52;94647.25;;;18.30;100.00
20013;BME280;10167;42.852;23.042;2022-08-19T03:13:20;94646.69;;;18.33;100.00
20013;BME280;10167;42.852;23.042;2022-08-19T03:15:48;94651.66;;;18.40;100.00
20013;BME280;10167;42.852;23.042;2022-08-19T03:18:16;94646.97;;;18.50;100.00
20013;BME280;10167;42.852;23.042;2022-08-19T03:20:46;94647.53;;;18.66;100.00
20013;BME280;10167;42.852;23.042;2022-08-19T03:28:18;94658.41;;;19.07;100.00
20013;BME280;10167;42.852;23.042;2022-08-19T03:30:55;94653.06;;;18.89;100.00
20013;BME280;10167;42.852;23.042;2022-08-19T03:33:24;94654.13;;;18.74;100.00
20013;BME280;10167;42.852;23.042;2022-08-19T03:36:03;94658.56;;;18.65;100.00
20013;BME280;10167;42.852;23.042;2022-08-19T03:38:32;94661.66;;;18.53;100.00
20013;BME280;10167;42.852;23.042;2022-08-19T03:41:03;94661.69;;;18.34;100.00
20013;BME280;10167;42.852;23.042;2022-08-19T03:43:34;94658.72;;;18.17;100.00
20013;BME280;10167;42.852;23.042;2022-08-19T03:51:08;94663.97;;;17.85;100.00
20013;BME280;10167;42.852;23.042;2022-08-19T03:53:42;94664.09;;;17.74;100.00
20013;BME280;10167;42.852;23.042;2022-08-19T03:56:10;94667.41;;;17.66;100.00
20013;BME280;10167;42.852;23.042;2022-08-19T03:58:39;94662.88;;;17.62;100.00
20013;BME280;10167;42.852;23.042;2022-08-19T04:01:09;94670.41;;;17.60;100.00
20013;BME280;10167;42.852;23.042;2022-08-19T04:03:37;94667.97;;;17.63;100.00
20013;BME280;10167;42.852;23.042;2022-08-19T04:06:15;94667.69;;;17.65;100.00
20013;BME280;10167;42.852;23.042;2022-08-19T04:13:47;94667.28;;;17.76;100.00
20013;BME280;10167;42.852;23.042;2022-08-19T04:16:14;94679.25;;;17.84;100.00
20013;BME280;10167;42.852;23.042;2022-08-19T04:18:42;94675.28;;;17.82;100.00
20013;BME280;10167;42.852;23.042;2022-08-19T04:21:15;94676.56;;;17.84;100.00
20013;BME280;10167;42.852;23.042;2022-08-19T04:23:43;94675.75;;;17.84;100.00
20013;BME280;10167;42.852;23.042;2022-08-19T04:26:13;94677.59;;;17.88;100.00
20013;BME280;10167;42.852;23.042;2022-08-19T04:28:41;94678.63;;;17.92;100.00
20013;BME280;10167;42.852;23.042;2022-08-19T04:38:05;94669.22;;;18.13;100.00
20013;BME280;10167;42.852;23.042;2022-08-19T04:40:33;94670.91;;;18.28;100.00
20013;BME280;10167;42.852;23.042;2022-08-19T04:43:18;94671.00;;;18.56;100.00
20013;BME280;10167;42.852;23.042;2022-08-19T04:45:46;94680.06;;;18.78;100.00
20013;BME280;10167;42.852;23.042;2022-08-19T04:48:14;94674.25;;;18.90;100.00
20013;BME280;10167;42.852;23.042;2022-08-19T04:50:55;94673.22;;;19.05;100.00
20013;BME280;10167;42.852;23.042;2022-08-19T04:56:17;94685.00;;;19.36;100.00
20013;BME280;10167;42.852;23.042;2022-08-19T04:58:47;94677.34;;;19.43;100.00
20013;BME280;10167;42.852;23.042;2022-08-19T05:01:19;94683.53;;;19.57;100.00
20013;BME280;10167;42.852;23.042;2022-08-19T05:03:46;94682.97;;;19.61;100.00
20013;BME280;10167;42.852;23.042;2022-08-19T05:06:15;94690.53;;;19.72;100.00
20013;BME280;10167;42.852;23.042;2022-08-19T05:08:43;94686.34;;;19.93;100.00
20013;BME280;10167;42.852;23.042;2022-08-19T05:11:12;94685.22;;;20.08;100.00
20013;BME280;10167;42.852;23.042;2022-08-19T05:18:45;94696.06;;;20.66;100.00
20013;BME280;10167;42.852;23.042;2022-08-19T05:21:31;94690.13;;;20.78;100.00
20013;BME280;10167;42.852;23.042;2022-08-19T05:24:17;94689.03;;;21.01;100.00
20013;BME280;10167;42.852;23.042;2022-08-19T05:26:46;94693.78;;;21.18;100.00
20013;BME280;10167;42.852;23.042;2022-08-19T05:29:16;94693.56;;;21.37;100.00
20013;BME280;10167;42.852;23.042;2022-08-19T05:31:44;94696.66;;;21.53;100.00
20013;BME280;10167;42.852;23.042;2022-08-19T05:34:12;94698.00;;;21.72;100.00
20013;BME280;10167;42.852;23.042;2022-08-19T05:41:53;94701.66;;;22.25;100.00
20013;BME280;10167;42.852;23.042;2022-08-19T05:44:24;94698.84;;;22.38;100.00
20013;BME280;10167;42.852;23.042;2022-08-19T05:46:53;94698.06;;;22.55;100.00
20013;BME280;10167;42.852;23.042;2022-08-19T05:49:21;94692.06;;;22.84;100.00
20013;BME280;10167;42.852;23.042;2022-08-19T05:51:49;94690.94;;;23.02;100.00
20013;BME280;10167;42.852;23.042;2022-08-19T05:54:17;94690.75;;;23.25;100.00
20013;BME280;10167;42.852;23.042;2022-08-19T05:56:45;94688.63;;;23.47;100.00
20013;BME280;10167;42.852;23.042;2022-08-19T06:04:18;94699.63;;;23.89;100.00
20013;BME280;10167;42.852;23.042;2022-08-19T06:06:47;94704.03;;;24.02;100.00
20013;BME280;10167;42.852;23.042;2022-08-19T06:09:15;94698.53;;;24.19;100.00
20013;BME280;10167;42.852;23.042;2022-08-19T06:11:46;94696.00;;;24.23;100.00
20013;BME280;10167;42.852;23.042;2022-08-19T06:14:15;94694.81;;;24.33;100.00
20013;BME280;10167;42.852;23.042;2022-08-19T06:16:43;94695.84;;;24.49;100.00
20013;BME280;10167;42.852;23.042;2022-08-19T06:19:13;94697.94;;;24.64;100.00
20013;BME280;10167;42.852;23.042;2022-08-19T06:26:47;94702.69;;;25.09;100.00
20013;BME280;10167;42.852;23.042;2022-08-19T06:29:22;94693.16;;;25.23;100.00
20013;BME280;10167;42.852;23.042;2022-08-19T06:31:53;94702.84;;;25.45;100.00
20013;BME280;10167;42.852;23.042;2022-08-19T06:34:21;94712.59;;;25.58;100.00
20013;BME280;10167;42.852;23.042;2022-08-19T06:36:51;94707.75;;;25.64;99.90
20013;BME280;10167;42.852;23.042;2022-08-19T06:39:20;94713.09;;;25.85;99.12
20013;BME280;10167;42.852;23.042;2022-08-19T06:41:51;94707.59;;;25.93;100.00
20013;BME280;10167;42.852;23.042;2022-08-19T06:49:23;94712.22;;;26.42;99.12
20013;BME280;10167;42.852;23.042;2022-08-19T06:51:54;94716.84;;;26.53;95.28
20013;BME280;10167;42.852;23.042;2022-08-19T06:54:23;94722.53;;;26.48;89.70
20013;BME280;10167;42.852;23.042;2022-08-19T06:56:57;94720.66;;;26.76;88.09
20013;BME280;10167;42.852;23.042;2022-08-19T06:59:26;94712.63;;;26.92;88.81
20013;BME280;10167;42.852;23.042;2022-08-19T07:01:56;94717.97;;;27.17;85.72
20013;BME280;10167;42.852;23.042;2022-08-19T07:04:27;94715.50;;;27.39;88.01
20013;BME280;10167;42.852;23.042;2022-08-19T07:12:00;94715.06;;;27.81;85.44
20013;BME280;10167;42.852;23.042;2022-08-19T07:14:33;94715.00;;;28.09;79.91
20013;BME280;10167;42.852;23.042;2022-08-19T07:17:07;94711.78;;;28.19;76.58
20013;BME280;10167;42.852;23.042;2022-08-19T07:19:36;94711.94;;;28.26;71.99
20013;BME280;10167;42.852;23.042;2022-08-19T07:22:05;94707.25;;;28.42;73.01
20013;BME280;10167;42.852;23.042;2022-08-19T07:24:39;94715.09;;;28.44;72.03
20013;BME280;10167;42.852;23.042;2022-08-19T07:27:18;94718.69;;;28.67;69.34
20013;BME280;10167;42.852;23.042;2022-08-19T07:34:56;94709.13;;;28.89;67.56
20013;BME280;10167;42.852;23.042;2022-08-19T07:37:23;94706.16;;;28.98;69.55
20013;BME280;10167;42.852;23.042;2022-08-19T07:39:59;94710.03;;;28.97;69.40
20013;BME280;10167;42.852;23.042;2022-08-19T07:42:27;94715.44;;;29.32;67.92
20013;BME280;10167;42.852;23.042;2022-08-19T07:44:56;94710.84;;;29.55;68.16
20013;BME280;10167;42.852;23.042;2022-08-19T07:47:24;94714.56;;;29.66;65.02
20013;BME280;10167;42.852;23.042;2022-08-19T07:50:16;94707.56;;;29.91;67.06
20013;BME280;10167;42.852;23.042;2022-08-19T07:57:24;94715.66;;;30.53;62.30
20013;BME280;10167;42.852;23.042;2022-08-19T07:59:52;94717.16;;;30.50;57.97
20013;BME280;10167;42.852;23.042;2022-08-19T08:02:19;94705.41;;;30.46;57.56
20013;BME280;10167;42.852;23.042;2022-08-19T08:04:47;94708.63;;;30.78;62.00
20013;BME280;10167;42.852;23.042;2022-08-19T08:07:41;94704.88;;;30.90;59.45
20013;BME280;10167;42.852;23.042;2022-08-19T08:10:27;94710.78;;;30.95;57.35
20013;BME280;10167;42.852;23.042;2022-08-19T08:16:35;94707.78;;;31.34;56.29
20013;BME280;10167;42.852;23.042;2022-08-19T08:19:14;94699.97;;;31.66;56.45
20013;BME280;10167;42.852;23.042;2022-08-19T08:21:54;94699.00;;;31.88;55.39
20013;BME280;10167;42.852;23.042;2022-08-19T08:24:22;94697.56;;;32.01;48.75
20013;BME280;10167;42.852;23.042;2022-08-19T08:26:55;94693.69;;;32.06;50.92
20013;BME280;10167;42.852;23.042;2022-08-19T08:29:24;94697.03;;;32.26;50.39
20013;BME280;10167;42.852;23.042;2022-08-19T08:31:53;94695.84;;;32.27;46.91
20013;BME280;10167;42.852;23.042;2022-08-19T08:39:29;94683.72;;;32.83;44.30
20013;BME280;10167;42.852;23.042;2022-08-19T08:42:07;94695.97;;;33.03;45.23
20013;BME280;10167;42.852;23.042;2022-08-19T08:44:48;94681.13;;;33.14;41.55
20013;BME280;10167;42.852;23.042;2022-08-19T08:47:20;94685.53;;;33.33;38.13
20013;BME280;10167;42.852;23.042;2022-08-19T08:49:52;94689.56;;;33.71;41.23
20013;BME280;10167;42.852;23.042;2022-08-19T08:52:23;94688.47;;;33.97;38.63
20013;BME280;10167;42.852;23.042;2022-08-19T08:55:04;94692.81;;;34.19;38.28
20013;BME280;10167;42.852;23.042;2022-08-19T09:02:40;94681.41;;;34.46;36.71
20013;BME280;10167;42.852;23.042;2022-08-19T09:05:10;94671.22;;;34.36;36.06
20013;BME280;10167;42.852;23.042;2022-08-19T09:07:49;94673.16;;;34.14;36.17
20013;BME280;10167;42.852;23.042;2022-08-19T09:10:27;94670.03;;;34.26;34.88
20013;BME280;10167;42.852;23.042;2022-08-19T09:13:01;94676.69;;;34.50;35.85
20013;BME280;10167;42.852;23.042;2022-08-19T09:15:38;94670.38;;;34.85;36.47
20013;BME280;10167;42.852;23.042;2022-08-19T09:18:09;94662.47;;;34.98;37.26
20013;BME280;10167;42.852;23.042;2022-08-19T09:23:24;94654.09;;;35.33;35.38
20013;BME280;10167;42.852;23.042;2022-08-19T09:25:53;94655.53;;;35.59;35.77
20013;BME280;10167;42.852;23.042;2022-08-19T09:28:21;94658.31;;;35.55;34.46
20013;BME280;10167;42.852;23.042;2022-08-19T09:30:53;94656.03;;;35.40;33.27
20013;BME280;10167;42.852;23.042;2022-08-19T09:33:21;94652.66;;;35.84;34.58
20013;BME280;10167;42.852;23.042;2022-08-19T09:35:49;94651.81;;;35.90;33.05
20013;BME280;10167;42.852;23.042;2022-08-19T09:38:20;94648.94;;;36.05;34.66
20013;BME280;10167;42.852;23.042;2022-08-19T09:45:46;94650.13;;;36.07;32.90
20013;BME280;10167;42.852;23.042;2022-08-19T09:48:14;94646.75;;;35.85;31.12
20013;BME280;10167;42.852;23.042;2022-08-19T09:50:49;94642.94;;;36.17;32.56
20013;BME280;10167;42.852;23.042;2022-08-19T09:53:18;94644.50;;;36.18;30.23
20013;BME280;10167;42.852;23.042;2022-08-19T09:55:52;94634.22;;;36.25;29.66
20013;BME280;10167;42.852;23.042;2022-08-19T09:58:22;94640.84;;;36.35;29.35
20013;BME280;10167;42.852;23.042;2022-08-19T10:00:54;94632.56;;;36.35;30.53
20013;BME280;10167;42.852;23.042;2022-08-19T10:08:29;94617.00;;;36.93;31.85
20013;BME280;10167;42.852;23.042;2022-08-19T10:10:57;94620.81;;;37.02;30.75
20013;BME280;10167;42.852;23.042;2022-08-19T10:13:27;94612.72;;;36.51;29.63
20013;BME280;10167;42.852;23.042;2022-08-19T10:15:56;94615.91;;;36.87;31.75
20013;BME280;10167;42.852;23.042;2022-08-19T10:18:24;94604.88;;;37.21;31.34
20013;BME280;10167;42.852;23.042;2022-08-19T10:21:03;94607.25;;;37.15;29.68
20013;BME280;10167;42.852;23.042;2022-08-19T10:23:35;94602.66;;;37.05;32.15
20013;BME280;10167;42.852;23.042;2022-08-19T10:30:58;94606.28;;;36.64;29.40
20013;BME280;10167;42.852;23.042;2022-08-19T10:33:25;94608.97;;;36.71;29.55
20013;BME280;10167;42.852;23.042;2022-08-19T10:36:17;94606.44;;;36.47;30.32
20013;BME280;10167;42.852;23.042;2022-08-19T10:38:48;94600.22;;;36.39;31.35
20013;BME280;10167;42.852;23.042;2022-08-19T10:41:23;94598.03;;;36.61;30.34
20013;BME280;10167;42.852;23.042;2022-08-19T10:43:52;94601.81;;;36.78;29.42
20013;BME280;10167;42.852;23.042;2022-08-19T10:49:02;94598.28;;;37.07;28.43
20013;BME280;10167;42.852;23.042;2022-08-19T10:51:31;94596.13;;;37.53;27.76
20013;BME280;10167;42.852;23.042;2022-08-19T10:54:17;94600.94;;;37.75;27.77
20013;BME280;10167;42.852;23.042;2022-08-19T10:56:59;94603.31;;;38.00;28.51
20013;BME280;10167;42.852;23.042;2022-08-19T10:59:28;94594.69;;;37.71;26.53
20013;BME280;10167;42.852;23.042;2022-08-19T11:02:04;94589.00;;;38.05;27.76
20013;BME280;10167;42.852;23.042;2022-08-19T11:09:38;94586.81;;;38.43;25.92
20013;BME280;10167;42.852;23.042;2022-08-19T11:12:07;94575.13;;;38.12;26.17
20013;BME280;10167;42.852;23.042;2022-08-19T11:14:35;94575.31;;;38.45;27.30
20013;BME280;10167;42.852;23.042;2022-08-19T11:17:04;94572.03;;;38.30;25.66
20013;BME280;10167;42.852;23.042;2022-08-19T11:19:32;94568.88;;;38.05;27.45
20013;BME280;10167;42.852;23.042;2022-08-19T11:22:00;94572.56;;;38.22;25.58
20013;BME280;10167;42.852;23.042;2022-08-19T11:24:30;94563.41;;;38.48;27.27
20013;BME280;10167;42.852;23.042;2022-08-19T11:31:19;94562.53;;;39.14;26.23
20013;BME280;10167;42.852;23.042;2022-08-19T11:33:47;94559.34;;;39.15;25.48
20013;BME280;10167;42.852;23.042;2022-08-19T11:36:17;94551.28;;;39.21;26.13
20013;BME280;10167;42.852;23.042;2022-08-19T11:38:45;94541.94;;;39.15;25.54
20013;BME280;10167;42.852;23.042;2022-08-19T11:41:17;94542.16;;;38.22;25.72
20013;BME280;10167;42.852;23.042;2022-08-19T11:43:45;94544.06;;;37.78;26.43
20013;BME280;10167;42.852;23.042;2022-08-19T11:46:13;94537.16;;;37.90;25.77
20013;BME280;10167;42.852;23.042;2022-08-19T11:51:21;94531.03;;;38.02;27.19
20013;BME280;10167;42.852;23.042;2022-08-19T11:53:50;94522.38;;;38.23;26.70
20013;BME280;10167;42.852;23.042;2022-08-19T11:56:19;94522.00;;;38.21;27.66
20013;BME280;10167;42.852;23.042;2022-08-19T11:58:47;94523.38;;;38.33;26.31
20013;BME280;10167;42.852;23.042;2022-08-19T12:01:16;94515.41;;;38.58;26.57
20013;BME280;10167;42.852;23.042;2022-08-19T12:03:46;94510.94;;;38.64;26.49
20013;BME280;10167;42.852;23.042;2022-08-19T12:06:16;94511.38;;;39.18;26.82
20013;BME280;10167;42.852;23.042;2022-08-19T12:13:30;94510.75;;;40.12;25.18
20013;BME280;10167;42.852;23.042;2022-08-19T12:15:58;94507.75;;;40.06;23.20
20013;BME280;10167;42.852;23.042;2022-08-19T12:18:26;94508.13;;;40.21;23.75
20013;BME280;10167;42.852;23.042;2022-08-19T12:20:54;94496.13;;;40.69;24.13
20013;BME280;10167;42.852;23.042;2022-08-19T12:23:21;94497.63;;;40.57;23.94
20013;BME280;10167;42.852;23.042;2022-08-19T12:25:49;94495.41;;;40.81;23.68
20013;BME280;10167;42.852;23.042;2022-08-19T12:28:18;94496.13;;;41.36;23.67
20013;BME280;10167;42.852;23.042;2022-08-19T12:35:50;94498.75;;;43.25;20.71
20013;BME280;10167;42.852;23.042;2022-08-19T12:38:18;94490.41;;;43.25;20.45
20013;BME280;10167;42.852;23.042;2022-08-19T12:40:47;94493.94;;;43.56;20.17
20013;BME280;10167;42.852;23.042;2022-08-19T12:43:15;94495.28;;;43.42;20.72
20013;BME280;10167;42.852;23.042;2022-08-19T12:45:43;94487.59;;;43.56;19.85
20013;BME280;10167;42.852;23.042;2022-08-19T12:48:13;94476.47;;;42.50;20.64
20013;BME280;10167;42.852;23.042;2022-08-19T12:51:06;94481.38;;;42.12;20.32
20013;BME280;10167;42.852;23.042;2022-08-19T12:58:38;94462.44;;;41.72;21.04
20013;BME280;10167;42.852;23.042;2022-08-19T13:01:16;94460.97;;;42.71;20.33
20013;BME280;10167;42.852;23.042;2022-08-19T13:03:49;94464.00;;;43.07;19.84
20013;BME280;10167;42.852;23.042;2022-08-19T13:06:18;94462.19;;;43.54;20.14
20013;BME280;10167;42.852;23.042;2022-08-19T13:08:46;94459.34;;;43.94;19.58
20013;BME280;10167;42.852;23.042;2022-08-19T13:11:16;94449.94;;;44.09;20.20
20013;BME280;10167;42.852;23.042;2022-08-19T13:13:47;94452.91;;;42.86;19.92
20013;BME280;10167;42.852;23.042;2022-08-19T13:21:24;94449.19;;;43.60;19.96
20013;BME280;10167;42.852;23.042;2022-08-19T13:23:53;94441.69;;;43.07;19.63
20013;BME280;10167;42.852;23.042;2022-08-19T13:26:21;94438.53;;;43.67;19.00
20013;BME280;10167;42.852;23.042;2022-08-19T13:28:49;94432.41;;;44.00;19.37
20013;BME280;10167;42.852;23.042;2022-08-19T13:31:36;94437.69;;;43.98;18.99
20013;BME280;10167;42.852;23.042;2022-08-19T13:34:30;94435.66;;;44.35;18.73
20013;BME280;10167;42.852;23.042;2022-08-19T13:39:45;94430.44;;;45.39;18.49
20013;BME280;10167;42.852;23.042;2022-08-19T13:42:14;94431.84;;;45.44;18.09
20013;BME280;10167;42.852;23.042;2022-08-19T13:44:41;94437.03;;;45.27;18.42
20013;BME280;10167;42.852;23.042;2022-08-19T13:47:09;94422.38;;;44.99;19.22
20013;BME280;10167;42.852;23.042;2022-08-19T13:49:39;94424.25;;;43.56;19.83
20013;BME280;10167;42.852;23.042;2022-08-19T13:52:06;94411.25;;;42.60;20.72
20013;BME280;10167;42.852;23.042;2022-08-19T13:54:35;94418.66;;;42.32;20.73
20013;BME280;10167;42.852;23.042;2022-08-19T13:59:40;94415.66;;;42.27;21.28
20013;BME280;10167;42.852;23.042;2022-08-19T14:02:08;94413.06;;;42.32;20.80
20013;BME280;10167;42.852;23.042;2022-08-19T14:04:37;94415.59;;;42.61;20.98
20013;BME280;10167;42.852;23.042;2022-08-19T14:07:05;94413.72;;;42.58;21.46
20013;BME280;10167;42.852;23.042;2022-08-19T14:09:32;94405.22;;;41.11;22.02
20013;BME280;10167;42.852;23.042;2022-08-19T14:12:00;94400.28;;;40.52;22.72
20013;BME280;10167;42.852;23.042;2022-08-19T14:14:28;94400.63;;;39.96;23.10
20013;BME280;10167;42.852;23.042;2022-08-19T14:21:56;94400.94;;;38.68;24.96
20013;BME280;10167;42.852;23.042;2022-08-19T14:24:24;94395.84;;;38.27;25.51
20013;BME280;10167;42.852;23.042;2022-08-19T14:26:52;94392.81;;;38.22;25.45
20013;BME280;10167;42.852;23.042;2022-08-19T14:29:20;94396.75;;;37.81;25.44
20013;BME280;10167;42.852;23.042;2022-08-19T14:31:47;94390.88;;;37.79;26.19
20013;BME280;10167;42.852;23.042;2022-08-19T14:34:15;94392.84;;;37.55;25.96
20013;BME280;10167;42.852;23.042;2022-08-19T14:36:42;94390.94;;;37.29;26.93
20013;BME280;10167;42.852;23.042;2022-08-19T14:44:11;94385.91;;;36.70;28.37
20013;BME280;10167;42.852;23.042;2022-08-19T14:46:39;94380.38;;;36.43;28.37
20013;BME280;10167;42.852;23.042;2022-08-19T14:49:16;94381.03;;;36.20;28.83
20013;BME280;10167;42.852;23.042;2022-08-19T14:51:45;94374.88;;;36.09;29.31
20013;BME280;10167;42.852;23.042;2022-08-19T14:54:13;94366.25;;;36.03;29.32
20013;BME280;10167;42.852;23.042;2022-08-19T14:56:41;94376.69;;;35.89;29.07
20013;BME280;10167;42.852;23.042;2022-08-19T14:59:09;94373.22;;;35.81;29.65
20013;BME280;10167;42.852;23.042;2022-08-19T15:06:46;94369.47;;;35.61;30.96
20013;BME280;10167;42.852;23.042;2022-08-19T15:09:14;94371.53;;;35.53;31.26
20013;BME280;10167;42.852;23.042;2022-08-19T15:11:42;94368.00;;;35.49;32.26
20013;BME280;10167;42.852;23.042;2022-08-19T15:14:10;94370.50;;;35.37;31.91
20013;BME280;10167;42.852;23.042;2022-08-19T15:16:38;94372.94;;;35.24;32.34
20013;BME280;10167;42.852;23.042;2022-08-19T15:19:09;94376.94;;;35.19;31.83
20013;BME280;10167;42.852;23.042;2022-08-19T15:21:36;94377.72;;;35.20;32.65
20013;BME280;10167;42.852;23.042;2022-08-19T15:28:28;94381.47;;;34.88;32.70
20013;BME280;10167;42.852;23.042;2022-08-19T15:30:58;94378.72;;;34.88;32.83
20013;BME280;10167;42.852;23.042;2022-08-19T15:33:25;94373.72;;;34.76;33.62
20013;BME280;10167;42.852;23.042;2022-08-19T15:35:53;94377.25;;;34.70;33.91
20013;BME280;10167;42.852;23.042;2022-08-19T15:38:21;94372.94;;;34.72;34.53
20013;BME280;10167;42.852;23.042;2022-08-19T15:40:49;94372.63;;;34.56;34.99
20013;BME280;10167;42.852;23.042;2022-08-19T15:43:18;94373.47;;;34.49;35.22
20013;BME280;10167;42.852;23.042;2022-08-19T15:50:51;94370.41;;;34.33;35.83
20013;BME280;10167;42.852;23.042;2022-08-19T15:53:19;94368.09;;;34.28;35.15
20013;BME280;10167;42.852;23.042;2022-08-19T15:55:47;94373.19;;;34.30;35.79
20013;BME280;10167;42.852;23.042;2022-08-19T15:58:16;94369.31;;;34.13;37.10
20013;BME280;10167;42.852;23.042;2022-08-19T16:01:05;94379.91;;;34.14;37.06
20013;BME280;10167;42.852;23.042;2022-08-19T16:03:55;94370.16;;;33.99;37.49
20013;BME280;10167;42.852;23.042;2022-08-19T16:11:47;94387.88;;;33.80;37.92
20013;BME280;10167;42.852;23.042;2022-08-19T16:14:23;94382.78;;;33.72;37.67
20013;BME280;10167;42.852;23.042;2022-08-19T16:16:51;94384.38;;;33.55;38.01
20013;BME280;10167;42.852;23.042;2022-08-19T16:19:20;94387.94;;;33.52;37.68
20013;BME280;10167;42.852;23.042;2022-08-19T16:21:50;94387.16;;;33.41;38.29
20013;BME280;10167;42.852;23.042;2022-08-19T16:24:21;94391.88;;;33.40;38.82
20013;BME280;10167;42.852;23.042;2022-08-19T16:26:50;94390.31;;;33.25;39.45
20013;BME280;10167;42.852;23.042;2022-08-19T16:34:21;94391.84;;;33.08;37.87
20013;BME280;10167;42.852;23.042;2022-08-19T16:36:49;94391.84;;;33.01;37.68